Time;durP1;ratioP1;P1;durP2;ratioP2;P2;SDS_P1;SDS_P2;PMS_P1;PMS_P2;Temp;Humidity;BMP_temperature;BMP_pressure;BME280_temperature;BME280_humidity;BME280_pressure;Samples;Min_cycle;Max_cycle;Signal;HPM_P1;HPM_P2
2024/04/22 00:00:51;;;;;;;1.90;1.80;;;;;;;1.96;100.00;93103.59;2098134;28;20032;-85
2024/04/22 00:01:52;;;;;;;2.08;1.98;;;;;;;2.03;100.00;93108.22;2098048;28;20110;-85
2024/04/22 00:02:53;;;;;;;1.90;1.80;;;;;;;2.09;100.00;93106.00;2096422;28;20123;-85
2024/04/22 00:03:54;;;;;;;2.00;1.90;;;;;;;2.13;100.00;93109.44;2106108;28;20031;-84
2024/04/22 00:04:55;;;;;;;2.10;2.00;;;;;;;2.07;100.00;93100.34;2106486;28;20039;-84
2024/04/22 00:05:56;;;;;;;1.88;1.77;;;;;;;2.11;100.00;93101.88;2097903;28;20024;-84
2024/04/22 00:06:57;;;;;;;2.05;1.95;;;;;;;1.97;100.00;93102.47;2105075;28;20034;-85
2024/04/22 00:07:58;;;;;;;1.90;1.80;;;;;;;1.98;100.00;93100.63;2106459;28;20035;-84
2024/04/22 00:08:59;;;;;;;1.75;1.65;;;;;;;1.83;100.00;93106.84;2087192;28;20028;-83
2024/04/22 00:10:00;;;;;;;1.90;1.80;;;;;;;2.03;100.00;93104.81;2097938;28;20028;-84
2024/04/22 00:11:02;;;;;;;2.03;1.92;;;;;;;1.99;100.00;93102.13;2098026;28;20075;-85
2024/04/22 00:12:03;;;;;;;1.85;1.75;;;;;;;2.23;100.00;93098.97;2098004;28;20087;-84
2024/04/22 00:13:04;;;;;;;2.03;1.92;;;;;;;2.25;100.00;93101.25;2089711;28;20029;-84
2024/04/22 00:14:08;;;;;;;1.92;1.83;;;;;;;2.27;100.00;93099.75;2089778;28;20029;-84
2024/04/22 00:15:09;;;;;;;2.00;1.90;;;;;;;2.08;100.00;93099.97;2098325;28;20116;-84
2024/04/22 00:16:11;;;;;;;2.47;2.25;;;;;;;2.04;100.00;93096.53;2098030;28;20415;-84
2024/04/22 00:17:12;;;;;;;2.42;2.22;;;;;;;2.17;100.00;93094.41;2105895;28;20055;-84
2024/04/22 00:18:27;;;;;;;2.08;1.98;;;;;;;2.22;100.00;93092.19;2114748;28;20028;-83
2024/04/22 00:19:28;;;;;;;2.05;1.95;;;;;;;2.12;100.00;93094.75;2110793;28;20037;-84
2024/04/22 00:20:29;;;;;;;2.35;2.22;;;;;;;1.99;100.00;93088.97;2114422;28;20024;-83
2024/04/22 00:21:30;;;;;;;2.00;1.90;;;;;;;1.91;100.00;93103.19;2098118;28;20118;-85
2024/04/22 00:22:30;;;;;;;2.20;2.10;;;;;;;1.95;100.00;93096.06;2106240;28;20031;-85
2024/04/22 00:23:31;;;;;;;2.45;2.30;;;;;;;1.97;100.00;93093.81;2106197;28;20020;-84
2024/04/22 00:24:32;;;;;;;2.40;2.25;;;;;;;1.82;100.00;93100.84;2097592;28;20473;-84
2024/04/22 00:25:33;;;;;;;2.40;2.20;;;;;;;1.94;100.00;93092.69;2106196;28;20051;-85
2024/04/22 00:26:36;;;;;;;2.20;2.10;;;;;;;1.73;100.00;93103.00;2106492;28;20031;-84
2024/04/22 00:27:37;;;;;;;2.10;2.00;;;;;;;1.92;100.00;93092.28;2097527;28;20044;-84
2024/04/22 00:28:38;;;;;;;2.30;2.20;;;;;;;1.93;100.00;93090.38;2089633;28;20021;-84
2024/04/22 00:29:39;;;;;;;2.67;2.38;;;;;;;2.04;100.00;93093.91;2097642;28;20110;-85
2024/04/22 00:30:40;;;;;;;2.30;2.20;;;;;;;2.11;100.00;93086.06;2091101;28;20021;-85
2024/04/22 00:31:41;;;;;;;2.30;2.10;;;;;;;2.08;100.00;93083.41;2098014;28;20024;-84
2024/04/22 00:32:45;;;;;;;2.75;2.55;;;;;;;2.20;100.00;93086.53;2105694;28;20020;-84
2024/04/22 00:33:46;;;;;;;2.53;2.33;;;;;;;2.06;100.00;93091.66;2098781;28;20385;-85
2024/04/22 00:34:46;;;;;;;2.55;2.35;;;;;;;1.87;100.00;93089.97;2103455;28;20024;-85
2024/04/22 00:35:55;;;;;;;2.90;2.70;;;;;;;1.94;100.00;93092.69;2100488;28;20494;-85
2024/04/22 00:36:56;;;;;;;2.80;2.60;;;;;;;2.03;100.00;93091.63;2109674;28;20039;-85
2024/04/22 00:37:57;;;;;;;2.50;2.30;;;;;;;1.90;100.00;93083.97;2096305;28;20028;-85
2024/04/22 00:38:59;;;;;;;2.70;2.33;;;;;;;2.04;100.00;93085.25;2100725;28;20472;-85
2024/04/22 00:40:00;;;;;;;2.72;2.53;;;;;;;2.08;100.00;93086.78;2097761;28;20055;-85
2024/04/22 00:41:00;;;;;;;2.92;2.72;;;;;;;2.03;100.00;93087.13;2101551;28;20090;-84
2024/04/22 00:42:02;;;;;;;2.90;2.70;;;;;;;1.93;100.00;93085.13;2105599;28;20024;-85
2024/04/22 00:43:03;;;;;;;2.80;2.60;;;;;;;2.08;100.00;93083.41;2105806;28;20020;-83
2024/04/22 00:44:04;;;;;;;2.85;2.65;;;;;;;2.35;100.00;93086.66;2097555;28;20020;-84
2024/04/22 00:45:05;;;;;;;2.78;2.58;;;;;;;2.27;100.00;93078.66;2097852;28;20082;-85
2024/04/22 00:46:08;;;;;;;2.40;2.20;;;;;;;2.33;100.00;93089.66;2089683;28;20035;-84
2024/04/22 00:47:09;;;;;;;2.65;2.45;;;;;;;2.33;100.00;93087.03;2089979;28;20441;-84
2024/04/22 00:48:11;;;;;;;2.22;2.03;;;;;;;2.31;100.00;93083.97;2097594;28;20032;-84
2024/04/22 00:49:13;;;;;;;2.28;2.17;;;;;;;2.32;100.00;93084.72;2116756;27;20023;-85
2024/04/22 00:50:14;;;;;;;2.40;2.30;;;;;;;2.31;100.00;93086.63;2112664;28;20019;-84
2024/04/22 00:51:15;;;;;;;2.58;2.38;;;;;;;2.39;100.00;93080.28;2106078;28;20653;-83
2024/04/22 00:52:18;;;;;;;2.42;2.33;;;;;;;2.27;100.00;93081.31;2105986;28;20638;-84
2024/04/22 00:53:20;;;;;;;2.60;2.40;;;;;;;2.36;100.00;93086.28;2089429;28;20031;-84
2024/04/22 00:54:21;;;;;;;2.60;2.40;;;;;;;2.28;100.00;93084.69;2097217;28;20101;-84
2024/04/22 00:55:23;;;;;;;2.60;2.40;;;;;;;2.30;100.00;93079.84;2097785;28;20033;-84
2024/04/22 00:56:28;;;;;;;2.78;2.58;;;;;;;2.24;100.00;93082.06;2098047;28;20024;-85
2024/04/22 00:57:30;;;;;;;2.38;2.22;;;;;;;2.24;100.00;93083.94;2103508;28;20114;-83
2024/04/22 00:58:31;;;;;;;2.72;2.53;;;;;;;2.25;100.00;93083.56;2089746;28;20021;-83
2024/04/22 00:59:32;;;;;;;2.92;2.72;;;;;;;2.26;100.00;93087.72;2103332;28;20020;-83
2024/04/22 01:00:34;;;;;;;2.55;2.40;;;;;;;2.31;100.00;93076.06;2097541;28;20118;-84
2024/04/22 01:01:36;;;;;;;2.78;2.58;;;;;;;2.39;100.00;93080.28;2105996;28;20038;-85
2024/04/22 01:02:39;;;;;;;2.63;2.42;;;;;;;2.07;100.00;93084.53;2098210;28;20089;-85
2024/04/22 01:03:41;;;;;;;3.20;2.90;;;;;;;2.35;100.00;93087.41;2105807;28;20468;-84
2024/04/22 01:04:43;;;;;;;2.92;2.72;;;;;;;2.20;100.00;93078.63;2097587;28;20040;-84
2024/04/22 01:05:44;;;;;;;2.92;2.70;;;;;;;2.21;100.00;93079.38;2090859;28;20048;-84
2024/04/22 01:06:48;;;;;;;2.90;2.70;;;;;;;2.40;100.00;93079.16;2106902;28;20028;-85
2024/04/22 01:07:49;;;;;;;2.92;2.72;;;;;;;2.32;100.00;93085.50;2105181;28;20020;-84
2024/04/22 01:08:50;;;;;;;3.00;2.80;;;;;;;2.37;100.00;93076.47;2105323;28;20024;-86
2024/04/22 01:09:51;;;;;;;3.20;3.00;;;;;;;2.34;100.00;93074.59;2097162;28;20381;-85
2024/04/22 01:10:53;;;;;;;3.00;2.80;;;;;;;2.44;100.00;93076.56;2094612;28;20385;-84
2024/04/22 01:11:54;;;;;;;3.00;2.80;;;;;;;2.56;100.00;93072.88;2105850;28;20038;-84
2024/04/22 01:12:55;;;;;;;3.58;3.28;;;;;;;2.29;100.00;93072.28;2097393;28;20028;-84
2024/04/22 01:13:57;;;;;;;3.00;2.80;;;;;;;2.44;100.00;93066.75;2097795;28;20074;-84
2024/04/22 01:14:58;;;;;;;3.42;3.13;;;;;;;2.60;100.00;93068.38;2097661;28;20028;-84
2024/04/22 01:15:59;;;;;;;3.42;3.22;;;;;;;2.52;100.00;93065.69;2097259;28;20037;-86
2024/04/22 01:17:01;;;;;;;3.42;3.22;;;;;;;2.61;100.00;93068.00;2089102;28;20078;-85
2024/04/22 01:18:02;;;;;;;3.47;3.20;;;;;;;2.53;100.00;93066.44;2097608;28;20028;-85
2024/04/22 01:19:03;;;;;;;3.65;3.35;;;;;;;2.45;100.00;93067.50;2097730;28;20548;-85
2024/04/22 01:20:05;;;;;;;3.08;2.88;;;;;;;2.47;100.00;93071.31;2097514;28;20316;-85
2024/04/22 01:21:06;;;;;;;3.35;3.10;;;;;;;2.58;100.00;93068.75;2093548;28;20376;-84
2024/04/22 01:22:07;;;;;;;3.78;3.53;;;;;;;2.50;100.00;93062.69;2089084;28;20025;-83
2024/04/22 01:23:08;;;;;;;3.75;3.45;;;;;;;2.47;100.00;93068.66;2096721;28;20062;-85
2024/04/22 01:24:11;;;;;;;3.33;3.13;;;;;;;2.57;100.00;93069.13;2105388;28;20016;-85
2024/04/22 01:25:16;;;;;;;3.75;3.45;;;;;;;2.50;100.00;93069.81;2097592;28;20127;-85
2024/04/22 01:26:17;;;;;;;4.72;3.38;;;;;;;2.36;100.00;93062.53;2093397;28;20382;-85
2024/04/22 01:27:18;;;;;;;4.00;3.60;;;;;;;2.33;100.00;93065.94;2089376;28;20060;-85
2024/04/22 01:28:19;;;;;;;4.15;3.85;;;;;;;2.46;100.00;93063.78;2097563;28;20037;-84
2024/04/22 01:29:20;;;;;;;3.65;3.35;;;;;;;2.46;100.00;93061.88;2093870;28;20490;-84
2024/04/22 01:30:27;;;;;;;3.85;3.55;;;;;;;2.44;100.00;93052.81;2105776;28;20055;-84
2024/04/22 01:31:28;;;;;;;3.53;3.33;;;;;;;2.26;100.00;93053.44;2106731;28;20039;-84
2024/04/22 01:32:31;;;;;;;3.55;3.28;;;;;;;2.37;100.00;93048.25;2097252;28;20036;-84
2024/04/22 01:33:31;;;;;;;3.70;3.40;;;;;;;2.43;100.00;93054.69;2098024;28;20054;-84
2024/04/22 01:34:32;;;;;;;3.75;3.45;;;;;;;2.32;100.00;93056.47;2097329;28;20130;-86
2024/04/22 01:35:33;;;;;;;3.75;3.33;;;;;;;2.35;100.00;93055.75;2089027;28;20121;-85
2024/04/22 01:36:40;;;;;;;3.60;3.30;;;;;;;2.32;100.00;93053.84;2094807;28;20032;-85
2024/04/22 01:37:41;;;;;;;3.78;3.50;;;;;;;2.35;100.00;93053.13;2098018;28;20023;-85
2024/04/22 01:38:42;;;;;;;3.55;3.30;;;;;;;2.30;100.00;93058.72;2088764;28;20020;-84
2024/04/22 01:39:43;;;;;;;3.10;2.90;;;;;;;2.36;100.00;93057.25;2085809;28;20032;-84
2024/04/22 01:40:44;;;;;;;3.67;3.47;;;;;;;2.29;100.00;93053.84;2097081;28;20107;-86
2024/04/22 01:41:45;;;;;;;3.90;3.60;;;;;;;2.21;100.00;93056.41;2105444;28;20032;-83
2024/04/22 01:42:46;;;;;;;3.75;3.45;;;;;;;2.24;100.00;93050.41;2096925;28;20024;-84
2024/04/22 01:43:47;;;;;;;3.53;3.30;;;;;;;2.20;100.00;93052.25;2097215;28;20020;-85
2024/04/22 01:44:48;;;;;;;3.50;3.20;;;;;;;2.33;100.00;93044.81;2105467;28;20047;-84
2024/04/22 01:45:49;;;;;;;3.30;3.10;;;;;;;2.33;100.00;93046.69;2097185;28;20601;-84
2024/04/22 01:46:50;;;;;;;3.78;3.47;;;;;;;2.17;100.00;93046.94;2105604;28;20028;-85
2024/04/22 01:47:50;;;;;;;3.83;3.53;;;;;;;1.94;100.00;93044.50;2112614;28;20119;-84
2024/04/22 01:48:51;;;;;;;3.63;3.33;;;;;;;1.94;100.00;93044.50;2097204;28;20023;-84
2024/04/22 01:49:52;;;;;;;3.13;2.92;;;;;;;2.07;100.00;93053.66;2097043;28;20058;-84
2024/04/22 01:50:53;;;;;;;3.08;2.88;;;;;;;2.10;100.00;93041.59;2088621;28;20322;-85
2024/04/22 01:51:54;;;;;;;3.22;2.90;;;;;;;2.16;100.00;93038.28;2080908;28;20032;-85
2024/04/22 01:52:56;;;;;;;3.13;2.92;;;;;;;2.13;100.00;93046.16;2084424;28;20028;-85
2024/04/22 01:53:57;;;;;;;2.92;2.72;;;;;;;1.95;100.00;93043.34;2097329;28;20048;-85
2024/04/22 01:54:58;;;;;;;2.85;2.65;;;;;;;1.98;100.00;93040.00;2106938;28;20468;-85
2024/04/22 01:55:59;;;;;;;3.20;3.00;;;;;;;2.16;100.00;93046.19;2098539;28;20485;-85
2024/04/22 01:57:00;;;;;;;2.83;2.60;;;;;;;2.15;100.00;93042.03;2080930;28;20417;-84
2024/04/22 01:58:01;;;;;;;3.00;2.72;;;;;;;2.05;100.00;93034.03;2089647;28;20024;-86
2024/04/22 01:59:02;;;;;;;2.90;2.70;;;;;;;2.07;100.00;93034.44;2096694;28;20037;-85
2024/04/22 02:00:04;;;;;;;2.92;2.72;;;;;;;2.11;100.00;93043.09;2097531;28;20550;-85
2024/04/22 02:01:07;;;;;;;2.80;2.60;;;;;;;2.17;100.00;93036.41;2097067;28;20045;-85
2024/04/22 02:02:08;;;;;;;2.83;2.63;;;;;;;2.10;100.00;93044.25;2105456;28;20024;-84
2024/04/22 02:03:09;;;;;;;2.63;2.42;;;;;;;2.24;100.00;93031.94;2102536;28;20503;-84
2024/04/22 02:04:10;;;;;;;3.20;2.90;;;;;;;2.21;100.00;93037.19;2097354;28;20055;-85
2024/04/22 02:05:11;;;;;;;2.67;2.47;;;;;;;1.99;100.00;93037.00;2105741;28;20414;-85
2024/04/22 02:06:12;;;;;;;2.95;2.75;;;;;;;2.04;100.00;93033.28;2110309;28;20123;-85
2024/04/22 02:07:13;;;;;;;2.83;2.63;;;;;;;2.14;100.00;93034.47;2088793;28;20051;-85
2024/04/22 02:08:14;;;;;;;3.40;3.10;;;;;;;1.90;100.00;93044.44;2086365;28;20044;-85
2024/04/22 02:09:15;;;;;;;3.13;2.92;;;;;;;2.03;100.00;93044.94;2088349;28;20442;-84
2024/04/22 02:10:16;;;;;;;3.38;3.17;;;;;;;1.80;100.00;93039.84;2089091;28;20036;-86
2024/04/22 02:11:17;;;;;;;3.38;3.17;;;;;;;1.82;100.00;93034.19;2097419;28;20960;-85
2024/04/22 02:12:18;;;;;;;3.17;2.97;;;;;;;1.83;100.00;93038.34;2105593;28;20038;-84
2024/04/22 02:13:19;;;;;;;3.55;3.25;;;;;;;1.98;100.00;93043.41;2105192;28;20028;-84
2024/04/22 02:14:20;;;;;;;3.22;3.00;;;;;;;1.94;100.00;93039.97;2106740;28;20114;-84
2024/04/22 02:15:21;;;;;;;3.83;3.03;;;;;;;1.88;100.00;93045.91;2113850;28;20066;-85
2024/04/22 02:16:22;;;;;;;3.08;2.88;;;;;;;1.97;100.00;93038.47;2113733;28;20023;-85
2024/04/22 02:17:23;;;;;;;3.63;3.33;;;;;;;1.97;100.00;93036.59;2098029;28;20405;-83
2024/04/22 02:18:24;;;;;;;3.35;3.13;;;;;;;1.87;100.00;93045.16;2096990;28;20059;-84
2024/04/22 02:19:26;;;;;;;3.40;3.20;;;;;;;1.87;100.00;93039.13;2083696;28;20029;-84
2024/04/22 02:20:27;;;;;;;3.35;3.05;;;;;;;1.88;100.00;93046.66;2089093;28;20046;-84
2024/04/22 02:21:28;;;;;;;2.88;2.67;;;;;;;1.66;100.00;93040.44;2098229;28;20460;-84
2024/04/22 02:22:31;;;;;;;3.17;2.88;;;;;;;1.83;100.00;93039.09;2105489;28;20115;-86
2024/04/22 02:23:33;;;;;;;3.30;3.10;;;;;;;1.87;100.00;93039.13;2088975;28;20033;-85
2024/04/22 02:24:34;;;;;;;3.05;2.85;;;;;;;1.89;100.00;93034.25;2089014;28;20105;-86
2024/04/22 02:25:35;;;;;;;3.28;2.97;;;;;;;2.07;100.00;93042.34;2097117;28;20043;-84
2024/04/22 02:27:57;;;;;;;;;;;;;;;1.02;100.00;93044.97;2148101;27;20196;-81
2024/04/22 02:28:58;;;;;;;2.85;2.65;;;;;;;1.08;100.00;93038.28;2129824;27;19923;-83
2024/04/22 02:29:58;;;;;;;3.17;2.88;;;;;;;1.11;100.00;93042.84;2106040;28;20082;-84
2024/04/22 02:30:59;;;;;;;2.92;2.70;;;;;;;1.21;100.00;93041.44;2119824;28;20630;-83
2024/04/22 02:32:00;;;;;;;2.80;2.60;;;;;;;1.21;100.00;93038.81;2112706;28;20652;-83
2024/04/22 02:33:01;;;;;;;3.17;2.85;;;;;;;1.17;100.00;93041.38;2103015;28;20644;-84
2024/04/22 02:34:02;;;;;;;3.10;2.80;;;;;;;1.12;100.00;93031.19;2112642;28;20052;-83
2024/04/22 02:35:04;;;;;;;2.90;2.70;;;;;;;1.14;100.00;93028.19;2121007;27;20033;-82
2024/04/22 02:36:05;;;;;;;2.90;2.70;;;;;;;0.95;100.00;93032.47;2110946;28;20134;-82
2024/04/22 02:37:07;;;;;;;3.30;3.10;;;;;;;0.93;100.00;93037.34;2096449;28;20079;-83
2024/04/22 02:38:08;;;;;;;3.13;2.90;;;;;;;0.77;100.00;93028.84;2104195;28;20048;-82
2024/04/22 02:39:09;;;;;;;3.30;3.10;;;;;;;1.11;100.00;93034.19;2095688;28;20028;-84
2024/04/22 02:40:10;;;;;;;4.10;3.80;;;;;;;1.05;100.00;93025.06;2112563;27;20023;-84
2024/04/22 02:41:13;;;;;;;3.63;3.33;;;;;;;0.99;100.00;93033.28;2121126;27;20031;-84
2024/04/22 02:42:14;;;;;;;3.47;3.17;;;;;;;0.84;100.00;93036.84;2104394;28;20433;-84
2024/04/22 02:43:14;;;;;;;3.45;3.25;;;;;;;0.85;100.00;93037.59;2095944;28;20492;-85
2024/04/22 02:44:15;;;;;;;3.70;3.40;;;;;;;1.22;100.00;93027.91;2087651;28;20052;-84
2024/04/22 02:45:16;;;;;;;3.35;3.10;;;;;;;1.20;100.00;93026.78;2095843;28;20025;-85
2024/04/22 02:46:18;;;;;;;4.00;3.20;;;;;;;1.20;100.00;93032.78;2103006;28;21616;-84
2024/04/22 02:47:19;;;;;;;4.50;3.60;;;;;;;1.47;100.00;93025.56;2111913;28;20384;-84
2024/04/22 02:48:20;;;;;;;3.53;3.22;;;;;;;1.51;100.00;93025.59;2112331;28;20066;-83
2024/04/22 02:49:21;;;;;;;3.95;3.65;;;;;;;1.22;100.00;93033.19;2120816;27;20023;-84
2024/04/22 02:50:22;;;;;;;3.35;3.05;;;;;;;1.23;100.00;93029.44;2122244;27;20030;-85
2024/04/22 02:51:23;;;;;;;3.45;3.15;;;;;;;1.17;100.00;93033.50;2120774;27;20132;-85
2024/04/22 02:52:24;;;;;;;3.70;3.40;;;;;;;1.07;100.00;93036.00;2115908;28;20106;-84
2024/04/22 02:53:25;;;;;;;3.70;3.20;;;;;;;0.91;100.00;93034.28;2103957;28;20035;-85
2024/04/22 02:54:28;;;;;;;4.07;3.67;;;;;;;0.83;100.00;93030.06;2097002;28;20056;-84
2024/04/22 02:55:30;;;;;;;4.35;4.05;;;;;;;0.89;100.00;93027.88;2104925;28;20016;-84
2024/04/22 02:56:30;;;;;;;3.90;3.60;;;;;;;0.99;100.00;93035.16;2103936;28;20130;-84
2024/04/22 02:57:31;;;;;;;3.90;3.60;;;;;;;1.05;100.00;93035.59;2112594;28;20019;-85
2024/04/22 02:58:33;;;;;;;4.30;3.90;;;;;;;1.10;100.00;93036.06;2103879;28;20016;-85
2024/04/22 02:59:34;;;;;;;4.63;4.22;;;;;;;1.16;100.00;93028.59;2101835;28;20028;-84
2024/04/22 03:00:35;;;;;;;4.55;4.15;;;;;;;1.10;100.00;93035.28;2095632;28;20083;-84
2024/04/22 03:01:36;;;;;;;5.18;4.68;;;;;;;1.07;100.00;93034.13;2095420;28;20028;-85
2024/04/22 03:02:37;;;;;;;5.00;4.50;;;;;;;1.16;100.00;93029.34;2104193;28;20135;-82
2024/04/22 03:03:38;;;;;;;5.55;5.05;;;;;;;1.18;100.00;93028.97;2103871;28;20036;-82
2024/04/22 03:04:39;;;;;;;5.57;4.80;;;;;;;1.16;100.00;93029.34;2103834;28;20024;-82
2024/04/22 03:05:40;;;;;;;6.10;5.50;;;;;;;0.99;100.00;93025.38;2111047;28;20111;-82
2024/04/22 03:06:41;;;;;;;5.60;5.10;;;;;;;1.00;100.00;93029.53;2101026;28;20104;-82
2024/04/22 03:07:42;;;;;;;5.68;5.18;;;;;;;0.98;100.00;93038.91;2104591;28;20024;-83
2024/04/22 03:08:43;;;;;;;5.88;5.13;;;;;;;1.05;100.00;93027.69;2120574;28;20020;-83
2024/04/22 03:09:45;;;;;;;6.47;5.82;;;;;;;0.97;100.00;93029.50;2115500;28;20019;-85
2024/04/22 03:10:46;;;;;;;6.43;5.82;;;;;;;0.85;100.00;93027.84;2121108;27;20030;-84
2024/04/22 03:11:46;;;;;;;5.82;5.30;;;;;;;1.03;100.00;93027.31;2112081;28;20043;-84
2024/04/22 03:12:48;;;;;;;6.38;5.55;;;;;;;0.98;100.00;93031.75;2104765;28;20762;-83
2024/04/22 03:13:49;;;;;;;5.90;5.30;;;;;;;0.86;100.00;93037.25;2112527;28;20027;-84
2024/04/22 03:14:50;;;;;;;9.38;6.05;;;;;;;0.86;100.00;93033.84;2112114;27;20468;-84
2024/04/22 03:15:51;;;;;;;6.65;5.22;;;;;;;0.93;100.00;93028.69;2112352;28;20074;-82
2024/04/22 03:16:51;;;;;;;5.97;5.38;;;;;;;0.94;100.00;93030.22;2096346;28;20025;-84
2024/04/22 03:17:53;;;;;;;6.85;6.25;;;;;;;0.93;100.00;93026.81;2088883;28;20024;-84
2024/04/22 03:18:54;;;;;;;7.30;6.10;;;;;;;0.81;100.00;93027.03;2095718;28;20051;-83
2024/04/22 03:19:55;;;;;;;10.43;5.57;;;;;;;0.84;100.00;93036.84;2094784;28;20036;-84
2024/04/22 03:20:56;;;;;;;11.27;6.40;;;;;;;0.92;100.00;93027.16;2095740;28;20035;-84
2024/04/22 03:21:57;;;;;;;9.57;6.55;;;;;;;0.96;100.00;93030.59;2103649;28;20028;-84
2024/04/22 03:22:58;;;;;;;6.80;6.10;;;;;;;0.91;100.00;93028.28;2103647;28;20035;-83
2024/04/22 03:23:59;;;;;;;6.75;6.15;;;;;;;0.84;100.00;93025.56;2095759;28;20152;-84
2024/04/22 03:25:00;;;;;;;7.00;6.30;;;;;;;0.91;100.00;93031.66;2109053;28;20019;-82
2024/04/22 03:26:01;;;;;;;7.00;6.40;;;;;;;0.86;100.00;93026.72;2112157;28;20536;-82
2024/04/22 03:27:03;;;;;;;8.00;6.47;;;;;;;0.92;100.00;93032.41;2111781;28;20024;-83
2024/04/22 03:28:04;;;;;;;12.48;6.45;;;;;;;0.99;100.00;93030.66;2112043;28;20035;-83
2024/04/22 03:29:05;;;;;;;8.95;6.18;;;;;;;0.96;100.00;93031.34;2112207;28;20106;-83
2024/04/22 03:30:08;;;;;;;7.10;6.43;;;;;;;1.10;100.00;93025.53;2118472;27;20019;-82
2024/04/22 03:31:09;;;;;;;7.32;6.20;;;;;;;1.11;100.00;93036.81;2111006;28;20032;-83
2024/04/22 03:32:10;;;;;;;7.20;6.47;;;;;;;1.21;100.00;93025.66;2095396;28;20502;-84
2024/04/22 03:33:11;;;;;;;7.38;6.68;;;;;;;1.09;100.00;93018.72;2103289;28;20054;-82
2024/04/22 03:34:12;;;;;;;6.70;6.00;;;;;;;1.25;100.00;93026.44;2120755;27;20052;-82
2024/04/22 03:35:13;;;;;;;8.02;6.13;;;;;;;1.09;100.00;93031.13;2121564;27;20563;-84
2024/04/22 03:36:14;;;;;;;6.53;5.93;;;;;;;1.17;100.00;93033.50;2113736;27;20057;-84
2024/04/22 03:37:15;;;;;;;6.55;5.95;;;;;;;1.10;100.00;93024.75;2100036;28;20075;-84
2024/04/22 03:38:16;;;;;;;6.90;6.20;;;;;;;1.00;100.00;93024.25;2099931;28;20029;-85
2024/04/22 03:39:17;;;;;;;19.05;6.45;;;;;;;0.85;100.00;93030.47;2096210;28;20025;-84
2024/04/22 03:40:18;;;;;;;8.18;6.45;;;;;;;1.05;100.00;93031.09;2090644;28;20453;-83
2024/04/22 03:41:19;;;;;;;10.23;6.28;;;;;;;0.95;100.00;93029.84;2089593;28;20039;-84
2024/04/22 03:42:20;;;;;;;10.68;6.60;;;;;;;0.97;100.00;93026.88;2098203;28;20028;-83
2024/04/22 03:43:21;;;;;;;8.73;6.22;;;;;;;0.87;100.00;93038.75;2114730;28;20459;-83
2024/04/22 03:44:22;;;;;;;13.93;6.30;;;;;;;0.83;100.00;93032.69;2098172;28;20024;-83
2024/04/22 03:45:23;;;;;;;6.90;6.20;;;;;;;0.91;100.00;93028.28;2097639;28;20032;-83
2024/04/22 03:50:22;;;;;;;15.27;7.07;;;;;;;0.95;100.00;93032.47;2116815;27;20020;-83
2024/04/22 03:51:23;;;;;;;7.38;6.15;;;;;;;0.86;100.00;93029.34;2103535;28;20024;-83
2024/04/22 03:52:24;;;;;;;17.20;6.80;;;;;;;1.07;100.00;93025.47;2097227;28;20064;-83
2024/04/22 03:53:25;;;;;;;8.30;6.70;;;;;;;0.97;100.00;93030.25;2103270;28;20050;-82
2024/04/22 03:54:26;;;;;;;14.30;7.15;;;;;;;0.85;100.00;93030.47;2097888;28;20079;-83
2024/04/22 03:55:27;;;;;;;11.20;6.80;;;;;;;0.82;100.00;93031.16;2106452;28;20046;-82
2024/04/22 03:56:28;;;;;;;8.90;7.32;;;;;;;0.95;100.00;93037.72;2106100;28;20455;-84
2024/04/22 03:57:29;;;;;;;9.80;7.35;;;;;;;0.98;100.00;93031.75;2114821;28;20081;-84
2024/04/22 03:58:30;;;;;;;9.27;7.00;;;;;;;1.05;100.00;93033.72;2114492;28;20136;-84
2024/04/22 03:59:31;;;;;;;14.68;7.18;;;;;;;1.00;100.00;93034.03;2106034;28;20020;-83
2024/04/22 04:00:32;;;;;;;10.93;7.00;;;;;;;0.93;100.00;93032.09;2106503;28;20118;-83
2024/04/22 04:01:33;;;;;;;12.05;7.35;;;;;;;0.89;100.00;93023.38;2119565;27;20059;-83
2024/04/22 04:02:34;;;;;;;8.18;7.32;;;;;;;0.92;100.00;93025.31;2098133;28;20024;-83
2024/04/22 04:03:36;;;;;;;11.00;7.13;;;;;;;0.92;100.00;93030.56;2089468;28;20021;-84
2024/04/22 04:04:37;;;;;;;13.52;6.45;;;;;;;0.75;100.00;93031.09;2083738;28;20029;-85
2024/04/22 04:05:37;;;;;;;7.93;6.93;;;;;;;0.87;100.00;93024.84;2100986;28;20031;-84
2024/04/22 04:06:38;;;;;;;8.27;7.28;;;;;;;0.90;100.00;93024.13;2097788;28;20037;-82
2024/04/22 04:07:39;;;;;;;7.60;6.80;;;;;;;0.86;100.00;93033.84;2089633;28;20453;-83
2024/04/22 04:08:40;;;;;;;9.35;7.00;;;;;;;1.00;100.00;93024.25;2097076;28;20400;-85
2024/04/22 04:09:42;;;;;;;8.63;7.35;;;;;;;0.85;100.00;93030.47;2096606;28;20028;-83
2024/04/22 04:10:44;;;;;;;7.50;6.80;;;;;;;0.64;100.00;93028.31;2097014;28;20032;-85
2024/04/22 04:11:47;;;;;;;9.40;7.50;;;;;;;0.79;100.00;93026.66;2100607;28;20027;-86
2024/04/22 04:12:48;;;;;;;8.93;8.02;;;;;;;0.75;100.00;93025.84;2097926;28;20380;-86
2024/04/22 04:13:49;;;;;;;7.90;7.10;;;;;;;0.69;100.00;93032.50;2097524;28;20110;-85
2024/04/22 04:14:50;;;;;;;8.80;7.43;;;;;;;0.66;100.00;93031.34;2094942;28;20024;-84
2024/04/22 04:15:51;;;;;;;8.07;7.13;;;;;;;0.69;100.00;93027.22;2089607;28;20025;-85
2024/04/22 04:16:52;;;;;;;7.70;6.93;;;;;;;0.54;100.00;93031.56;2086857;28;20086;-84
2024/04/22 04:17:53;;;;;;;9.02;8.00;;;;;;;0.74;100.00;93027.69;2090409;28;20527;-83
2024/04/22 04:18:54;;;;;;;9.57;7.00;;;;;;;0.92;100.00;93035.06;2106285;28;20085;-82
2024/04/22 04:19:55;;;;;;;9.18;7.43;;;;;;;0.96;100.00;93038.50;2097558;28;20029;-84
2024/04/22 04:20:55;;;;;;;7.65;6.95;;;;;;;0.85;100.00;93046.25;2097750;28;20017;-85
2024/04/22 04:21:56;;;;;;;8.68;6.82;;;;;;;0.99;100.00;93045.69;2103895;28;20020;-85
2024/04/22 04:22:57;;;;;;;8.25;7.45;;;;;;;1.02;100.00;93039.72;2105008;28;20031;-84
2024/04/22 04:23:59;;;;;;;8.25;6.80;;;;;;;0.93;100.00;93042.59;2097943;28;20025;-84
2024/04/22 04:25:00;;;;;;;8.30;7.18;;;;;;;0.95;100.00;93039.59;2098194;28;20024;-84
2024/04/22 04:26:02;;;;;;;8.95;7.90;;;;;;;0.95;100.00;93037.72;2105736;28;20020;-86
2024/04/22 04:27:03;;;;;;;8.23;7.03;;;;;;;1.11;100.00;93036.81;2089860;28;20021;-84
2024/04/22 04:28:04;;;;;;;9.68;7.60;;;;;;;0.98;100.00;93037.03;2084922;28;20347;-82
2024/04/22 04:29:05;;;;;;;9.38;7.05;;;;;;;0.88;100.00;93034.25;2097704;28;20060;-83
2024/04/22 04:30:06;;;;;;;8.90;7.40;;;;;;;0.95;100.00;93037.72;2105915;28;20028;-82
2024/04/22 04:31:07;;;;;;;8.68;7.88;;;;;;;0.72;100.00;93032.56;2106092;28;20050;-84
2024/04/22 04:32:08;;;;;;;9.07;7.13;;;;;;;0.90;100.00;93038.06;2100342;28;20090;-83
2024/04/22 04:33:09;;;;;;;8.65;7.68;;;;;;;0.83;100.00;93035.31;2083350;28;20093;-85
2024/04/22 04:34:10;;;;;;;8.10;7.30;;;;;;;0.80;100.00;93032.66;2106082;28;20557;-84
2024/04/22 04:35:11;;;;;;;8.75;7.85;;;;;;;0.93;100.00;93034.72;2099433;28;20036;-82
2024/04/22 04:36:12;;;;;;;7.10;6.43;;;;;;;0.82;100.00;93041.69;2095454;28;20059;-84
2024/04/22 04:37:13;;;;;;;8.18;7.38;;;;;;;0.82;100.00;93046.97;2090331;28;20339;-83
2024/04/22 04:38:14;;;;;;;7.95;7.25;;;;;;;0.79;100.00;93037.16;2099148;28;20094;-83
2024/04/22 04:39:15;;;;;;;8.30;7.45;;;;;;;0.81;100.00;93034.94;2095258;28;20033;-83
2024/04/22 04:40:17;;;;;;;9.10;7.30;;;;;;;0.78;100.00;93029.59;2099392;28;20036;-84
2024/04/22 04:41:20;;;;;;;12.50;7.80;;;;;;;0.99;100.00;93037.78;2102463;28;20541;-83
2024/04/22 04:42:21;;;;;;;8.60;7.18;;;;;;;0.74;100.00;93042.72;2088525;28;20433;-83
2024/04/22 04:43:22;;;;;;;11.85;7.40;;;;;;;0.67;100.00;93038.13;2101577;27;20024;-82
2024/04/22 04:44:24;;;;;;;8.27;7.30;;;;;;;0.84;100.00;93044.00;2118292;27;20080;-82
2024/04/22 04:45:25;;;;;;;9.30;7.45;;;;;;;0.83;100.00;93042.44;2111953;27;20174;-83
2024/04/22 04:46:26;;;;;;;8.30;7.47;;;;;;;0.83;100.00;93050.34;2104349;28;20027;-83
2024/04/22 04:47:27;;;;;;;8.05;7.25;;;;;;;0.67;100.00;93040.75;2096295;28;20025;-84
2024/04/22 04:48:31;;;;;;;11.10;7.20;;;;;;;0.60;100.00;93040.63;2105513;28;20510;-83
2024/04/22 04:49:32;;;;;;;8.35;7.53;;;;;;;0.64;100.00;93049.34;2099744;28;20035;-83
2024/04/22 04:50:33;;;;;;;8.35;7.35;;;;;;;0.84;100.00;93041.34;2096925;28;20032;-83
2024/04/22 04:51:34;;;;;;;11.20;9.15;;;;;;;0.83;100.00;93048.47;2089608;28;20079;-82
2024/04/22 04:52:35;;;;;;;9.27;8.27;;;;;;;0.92;100.00;93051.63;2093424;28;20032;-83
2024/04/22 04:53:37;;;;;;;8.13;7.32;;;;;;;0.87;100.00;93044.00;2085991;28;20025;-83
2024/04/22 04:54:38;;;;;;;8.68;7.53;;;;;;;0.80;100.00;93045.81;2098905;28;20046;-87